Time;durP1;ratioP1;P1;durP2;ratioP2;P2;SDS_P1;SDS_P2;PMS_P1;PMS_P2;Temp;Humidity;BMP_temperature;BMP_pressure;BME280_temperature;BME280_humidity;BME280_pressure;Samples;Min_cycle;Max_cycle;Signal;HPM_P1;HPM_P2
2023/04/09 00:01:53;;;;;;;40.72;28.15;;;;;;;;;;5020161;28;20407;-67
2023/04/09 00:04:19;;;;;;;41.70;28.67;;;8.90;99.90;;;;;;5019655;28;20076;-67
2023/04/09 00:06:45;;;;;;;44.60;28.77;;;9.40;99.90;;;;;;5004377;28;20660;-67
2023/04/09 00:09:10;;;;;;;38.83;27.50;;;8.70;99.90;;;;;;5002835;28;20034;-67
2023/04/09 00:11:36;;;;;;;44.22;29.00;;;8.90;99.90;;;;;;5020433;28;20079;-67
2023/04/09 00:14:01;;;;;;;44.80;28.40;;;8.90;1.00;;;;;;4981589;28;20068;-67
2023/04/09 00:16:27;;;;;;;45.38;29.38;;;8.70;1.00;;;;;;4998973;28;20243;-67
2023/04/09 00:18:53;;;;;;;43.28;27.88;;;8.90;1.00;;;;;;5014122;28;20052;-67
2023/04/09 00:21:19;;;;;;;44.20;29.25;;;9.10;1.00;;;;;;5016622;28;20514;-67
2023/04/09 00:23:45;;;;;;;40.20;26.80;;;8.80;1.00;;;;;;5024183;28;20044;-67
2023/04/09 00:26:10;;;;;;;41.30;28.13;;;8.50;1.00;;;;;;5028060;28;20038;-67
2023/04/09 00:28:36;;;;;;;42.83;28.92;;;9.30;1.00;;;;;;5016858;28;20037;-67
2023/04/09 00:31:02;;;;;;;45.00;30.17;;;8.70;1.00;;;;;;5023423;28;20072;-67
2023/04/09 00:33:28;;;;;;;41.90;29.05;;;9.50;1.00;;;;;;5026450;28;20518;-67
2023/04/09 00:35:53;;;;;;;46.45;31.02;;;9.00;1.00;;;;;;5021913;28;20142;-67
2023/04/09 00:38:19;;;;;;;44.92;31.15;;;8.90;1.00;;;;;;4998882;28;20431;-67
2023/04/09 00:40:49;;;;;;;48.55;33.33;;;9.00;1.00;;;;;;5026268;28;20029;-67
2023/04/09 00:43:15;;;;;;;51.45;34.35;;;8.80;1.00;;;;;;5032125;28;20530;-67
2023/04/09 00:45:41;;;;;;;47.55;32.60;;;9.40;1.00;;;;;;5031224;28;20069;-67
2023/04/09 00:48:07;;;;;;;48.72;32.25;;;8.90;1.00;;;;;;5009170;28;20415;-67
2023/04/09 00:50:33;;;;;;;50.17;33.75;;;8.90;1.00;;;;;;5027011;28;20049;-67
2023/04/09 00:52:59;;;;;;;52.88;34.30;;;9.20;1.00;;;;;;5014765;28;20046;-67
2023/04/09 00:55:25;;;;;;;51.08;32.58;;;9.90;1.00;;;;;;5018993;28;20176;-67
2023/04/09 00:57:51;;;;;;;54.58;36.30;;;;;;;;;;4989568;28;20041;-67
2023/04/09 01:00:17;;;;;;;51.60;34.60;;;8.80;1.00;;;;;;5020215;28;20412;-67
2023/04/09 01:02:46;;;;;;;55.63;36.60;;;9.10;1.00;;;;;;5021697;28;20045;-67
2023/04/09 01:05:12;;;;;;;54.22;36.72;;;;;;;;;;5022853;28;20069;-66
2023/04/09 01:07:41;;;;;;;58.40;37.13;;;9.20;1.00;;;;;;4998119;28;20446;-67
2023/04/09 01:10:24;;;;;;;55.55;35.55;;;9.50;1.00;;;;;;5017077;28;20044;-67
2023/04/09 01:13:15;;;;;;;53.00;35.97;;;8.70;1.00;;;;;;5022304;28;20041;-67
2023/04/09 01:15:48;;;;;;;53.67;35.80;;;9.40;1.00;;;;;;5026120;28;20052;-66
2023/04/09 01:18:30;;;;;;;58.95;35.97;;;9.20;1.00;;;;;;5017106;28;20041;-67
2023/04/09 01:21:05;;;;;;;59.33;35.15;;;9.00;1.00;;;;;;5023758;28;20037;-67
2023/04/09 01:23:58;;;;;;;55.08;35.25;;;8.70;1.00;;;;;;5017479;28;20115;-67
2023/04/09 01:26:36;;;;;;;57.30;37.58;;;9.30;1.00;;;;;;5023289;28;20434;-66
2023/04/09 01:29:03;;;;;;;56.08;35.63;;;9.20;1.00;;;;;;5019713;28;20076;-67
2023/04/09 01:31:35;;;;;;;54.50;35.35;;;9.10;1.00;;;;;;5020894;28;20096;-66
2023/04/09 01:34:02;;;;;;;52.88;34.50;;;9.10;99.90;;;;;;5022792;28;20048;-67
2023/04/09 01:36:31;;;;;;;51.55;34.63;;;8.90;1.00;;;;;;5024944;28;20053;-67
2023/04/09 01:38:57;;;;;;;52.78;33.95;;;;;;;;;;5008358;28;20045;-67
2023/04/09 01:41:25;;;;;;;53.10;32.88;;;9.30;99.90;;;;;;5004599;28;20120;-66
2023/04/09 01:43:51;;;;;;;51.05;33.20;;;9.00;99.90;;;;;;5017842;28;20522;-67
2023/04/09 01:46:18;;;;;;;50.08;32.10;;;9.40;99.90;;;;;;5024458;28;20054;-67
2023/04/09 01:48:45;;;;;;;52.08;33.75;;;8.80;99.90;;;;;;5009467;28;20491;-66
2023/04/09 01:51:15;;;;;;;53.20;33.80;;;9.00;99.90;;;;;;5017399;28;20103;-67
2023/04/09 01:53:41;;;;;;;48.85;31.85;;;9.40;99.90;;;;;;5018438;28;20463;-66
2023/04/09 01:56:08;;;;;;;52.13;32.33;;;9.50;99.90;;;;;;5021102;28;20044;-66
2023/04/09 01:58:34;;;;;;;52.15;31.77;;;8.90;99.90;;;;;;5025148;28;20033;-66
2023/04/09 02:01:13;;;;;;;50.25;32.72;;;9.10;99.90;;;;;;5027008;28;20041;-66
2023/04/09 02:03:57;;;;;;;49.60;32.22;;;9.10;99.90;;;;;;5014715;28;20602;-66
2023/04/09 02:06:44;;;;;;;52.63;33.13;;;9.90;99.90;;;;;;5014588;28;20412;-66
2023/04/09 02:09:11;;;;;;;57.67;33.13;;;9.20;99.90;;;;;;5022928;28;20447;-67
2023/04/09 02:11:40;;;;;;;52.70;32.28;;;9.10;99.90;;;;;;5014815;28;20359;-67
2023/04/09 02:14:10;;;;;;;53.10;32.83;;;8.50;99.90;;;;;;5022650;28;20470;-66
2023/04/09 02:16:37;;;;;;;51.72;32.67;;;9.40;99.90;;;;;;5010149;28;20034;-66
2023/04/09 02:19:02;;;;;;;57.75;33.03;;;9.10;99.90;;;;;;4993396;28;20081;-66
2023/04/09 02:21:28;;;;;;;58.80;33.45;;;9.00;99.90;;;;;;4999852;28;20061;-66
2023/04/09 02:23:54;;;;;;;56.30;33.60;;;8.90;99.90;;;;;;5022946;28;20494;-67
2023/04/09 02:26:21;;;;;;;56.17;33.97;;;;;;;;;;5016441;28;20037;-67
2023/04/09 02:28:47;;;;;;;55.65;35.08;;;8.60;99.90;;;;;;5021904;28;20079;-66
2023/04/09 02:31:13;;;;;;;56.05;34.30;;;9.00;99.90;;;;;;5019761;28;20065;-66
2023/04/09 02:33:39;;;;;;;59.58;35.95;;;8.80;99.90;;;;;;5017851;28;20444;-66
2023/04/09 02:36:05;;;;;;;59.92;36.05;;;8.80;99.90;;;;;;5018462;28;20037;-66
2023/04/09 02:38:31;;;;;;;63.13;34.65;;;8.80;99.90;;;;;;5014992;28;20526;-66
2023/04/09 02:40:58;;;;;;;58.55;35.28;;;9.20;99.90;;;;;;5004063;28;20041;-67
2023/04/09 02:43:24;;;;;;;64.60;35.35;;;8.80;99.90;;;;;;5012125;28;20030;-67
2023/04/09 02:45:49;;;;;;;63.08;34.22;;;8.70;99.90;;;;;;5027712;28;20411;-67
2023/04/09 02:48:15;;;;;;;58.50;35.10;;;9.50;99.90;;;;;;5028099;28;20495;-67
2023/04/09 02:50:41;;;;;;;58.78;33.60;;;8.90;99.90;;;;;;5019891;28;20077;-67
2023/04/09 02:53:06;;;;;;;60.47;34.22;;;9.00;99.90;;;;;;5012262;28;20041;-67
2023/04/09 02:55:32;;;;;;;62.70;36.47;;;8.80;99.90;;;;;;5020040;28;20069;-67
2023/04/09 02:57:58;;;;;;;55.70;33.70;;;8.90;99.90;;;;;;5017920;28;20125;-67
2023/04/09 03:00:23;;;;;;;62.85;35.72;;;8.60;99.90;;;;;;5014112;28;20052;-67
2023/04/09 03:02:49;;;;;;;61.38;35.70;;;9.40;99.90;;;;;;5024216;28;20479;-67
2023/04/09 03:05:15;;;;;;;57.88;31.75;;;8.80;99.90;;;;;;5015259;28;20030;-67
2023/04/09 03:07:40;;;;;;;57.55;32.60;;;8.80;99.90;;;;;;5015871;28;20491;-67
2023/04/09 03:10:06;;;;;;;57.55;31.70;;;8.90;99.90;;;;;;5011760;28;20042;-67
2023/04/09 03:12:32;;;;;;;58.80;31.30;;;8.60;99.90;;;;;;5014134;28;20110;-67
2023/04/09 03:14:57;;;;;;;58.67;34.17;;;8.40;99.90;;;;;;5027424;28;20037;-67
2023/04/09 03:17:26;;;;;;;59.83;32.42;;;8.40;99.90;;;;;;4998130;28;20443;-67
2023/04/09 03:19:52;;;;;;;61.28;34.47;;;8.60;99.90;;;;;;5024788;28;20041;-67
2023/04/09 03:22:18;;;;;;;56.20;31.70;;;8.70;99.90;;;;;;5018847;28;20038;-66
2023/04/09 03:24:43;;;;;;;53.92;30.70;;;8.80;99.90;;;;;;5023316;28;20033;-66
2023/04/09 03:27:09;;;;;;;57.65;32.00;;;8.70;99.90;;;;;;4984719;28;20084;-66
2023/04/09 03:29:35;;;;;;;63.38;33.22;;;8.80;99.90;;;;;;5016942;28;20560;-67
2023/04/09 03:32:00;;;;;;;61.47;33.67;;;9.00;99.90;;;;;;4996712;28;20056;-66
2023/04/09 03:34:26;;;;;;;64.50;33.90;;;8.90;99.90;;;;;;5016836;28;20264;-67
2023/04/09 03:36:51;;;;;;;57.80;32.60;;;8.50;99.90;;;;;;5023762;28;20044;-66
2023/04/09 03:39:17;;;;;;;62.83;34.28;;;8.80;99.90;;;;;;5021838;28;20400;-66
2023/04/09 03:41:43;;;;;;;55.03;32.90;;;8.80;99.90;;;;;;5017989;28;20148;-66
2023/04/09 03:44:08;;;;;;;58.40;33.88;;;8.50;99.90;;;;;;5013682;28;20034;-66
2023/04/09 03:46:34;;;;;;;58.95;33.92;;;8.80;99.90;;;;;;5014472;28;20104;-66
2023/04/09 03:49:00;;;;;;;62.78;33.47;;;8.60;99.90;;;;;;5020467;28;20033;-66
2023/04/09 03:51:26;;;;;;;58.95;32.53;;;8.30;99.90;;;;;;5016288;28;20722;-67
2023/04/09 03:53:51;;;;;;;59.03;33.60;;;8.60;99.90;;;;;;5012379;28;20415;-67
2023/04/09 03:56:17;;;;;;;66.97;34.47;;;8.60;99.90;;;;;;5014193;28;20044;-67
2023/04/09 03:58:43;;;;;;;60.58;31.90;;;8.70;99.90;;;;;;4994136;28;20507;-67
2023/04/09 04:01:08;;;;;;;52.72;27.65;;;8.60;99.90;;;;;;5010543;28;20049;-67
2023/04/09 04:03:34;;;;;;;58.22;31.00;;;8.90;99.90;;;;;;5015820;28;20070;-67
2023/04/09 04:06:03;;;;;;;56.45;30.25;;;8.60;1.00;;;;;;5013868;28;20041;-67
2023/04/09 04:08:29;;;;;;;53.00;29.65;;;8.20;1.00;;;;;;4999090;28;20462;-67
2023/04/09 04:10:54;;;;;;;55.33;28.40;;;9.30;1.00;;;;;;5017545;28;20176;-67
2023/04/09 04:13:20;;;;;;;54.00;29.77;;;8.40;1.00;;;;;;5013677;28;20045;-66
2023/04/09 04:15:46;;;;;;;56.03;29.13;;;8.60;1.00;;;;;;4993798;28;20054;-67
2023/04/09 04:18:12;;;;;;;55.22;29.23;;;8.60;1.00;;;;;;5019796;28;20041;-67
2023/04/09 04:20:38;;;;;;;51.42;27.45;;;8.60;1.00;;;;;;5018450;28;20510;-67
2023/04/09 04:23:04;;;;;;;56.40;29.17;;;8.50;1.00;;;;;;5010746;28;20033;-67
2023/04/09 04:25:30;;;;;;;52.55;28.25;;;8.60;1.00;;;;;;5021194;28;20034;-67
2023/04/09 04:27:56;;;;;;;52.42;28.90;;;8.40;1.00;;;;;;5020981;28;20465;-67
2023/04/09 04:30:22;;;;;;;50.88;29.77;;;8.60;1.00;;;;;;4999009;28;20043;-67
2023/04/09 04:32:48;;;;;;;53.50;28.50;;;8.20;1.00;;;;;;5022543;28;20141;-67
2023/04/09 04:35:14;;;;;;;52.25;27.77;;;8.50;1.00;;;;;;5026465;28;20037;-67
2023/04/09 04:37:39;;;;;;;54.00;29.42;;;8.30;1.00;;;;;;5026929;28;20034;-67
2023/04/09 04:40:06;;;;;;;53.33;27.67;;;8.90;1.00;;;;;;5013254;28;20476;-67
2023/04/09 04:42:32;;;;;;;50.58;28.38;;;8.70;1.00;;;;;;5018276;28;20276;-67
2023/04/09 04:44:58;;;;;;;48.70;28.55;;;8.70;1.00;;;;;;5002054;28;20060;-67
2023/04/09 04:47:24;;;;;;;50.35;27.92;;;8.60;1.00;;;;;;5005350;28;20041;-67
2023/04/09 04:49:50;;;;;;;53.30;28.10;;;8.20;1.00;;;;;;5030418;28;20041;-66
2023/04/09 04:52:15;;;;;;;46.35;27.25;;;8.80;1.00;;;;;;5026001;28;20033;-66
2023/04/09 04:54:41;;;;;;;46.17;27.90;;;8.50;1.00;;;;;;5021163;28;20084;-66
2023/04/09 04:57:07;;;;;;;49.25;26.80;;;8.60;1.00;;;;;;5018421;28;20483;-66
2023/04/09 04:59:35;;;;;;;43.45;24.98;;;8.20;1.00;;;;;;5000239;28;20046;-66
2023/04/09 05:02:01;;;;;;;47.33;25.48;;;8.70;1.00;;;;;;5019684;28;20070;-66
2023/04/09 05:04:26;;;;;;;42.80;23.48;;;8.80;1.00;;;;;;5000787;28;20070;-66
2023/04/09 05:06:52;;;;;;;42.35;24.08;;;8.40;1.00;;;;;;5011108;28;20042;-67
2023/04/09 05:09:18;;;;;;;39.83;22.48;;;8.20;1.00;;;;;;5020216;28;20037;-67
2023/04/09 05:11:44;;;;;;;39.38;22.15;;;;;;;;;;5029721;28;20171;-67
2023/04/09 05:14:09;;;;;;;42.00;23.42;;;8.70;1.00;;;;;;5026921;28;20064;-66
2023/04/09 05:16:35;;;;;;;37.95;23.15;;;8.60;1.00;;;;;;5001267;28;20494;-66
2023/04/09 05:19:01;;;;;;;45.03;22.55;;;8.60;1.00;;;;;;5007094;28;20477;-67
2023/04/09 05:21:26;;;;;;;40.10;23.17;;;8.30;99.90;;;;;;5002097;28;20037;-67
2023/04/09 05:23:53;;;;;;;45.42;23.27;;;8.80;99.90;;;;;;5011758;28;20192;-67
2023/04/09 05:26:18;;;;;;;40.30;22.50;;;8.40;99.90;;;;;;5036633;28;20029;-67
2023/04/09 05:28:44;;;;;;;40.72;24.52;;;8.70;99.90;;;;;;5016991;28;20048;-67
2023/04/09 05:31:11;;;;;;;41.00;22.83;;;8.20;1.00;;;;;;5023738;28;20063;-67
2023/04/09 05:33:38;;;;;;;38.22;22.10;;;8.10;1.00;;;;;;5022878;28;20120;-67
2023/04/09 05:36:04;;;;;;;38.60;22.55;;;8.40;1.00;;;;;;5034101;28;20033;-67
2023/04/09 05:38:30;;;;;;;39.53;21.88;;;8.10;1.00;;;;;;5031023;28;20120;-67
2023/04/09 05:40:56;;;;;;;44.28;24.85;;;8.30;1.00;;;;;;5020405;28;20124;-67
2023/04/09 05:43:22;;;;;;;42.22;21.42;;;8.10;1.00;;;;;;5024840;28;20037;-67
2023/04/09 05:45:47;;;;;;;38.58;22.33;;;8.40;1.00;;;;;;5016028;28;20199;-67
2023/04/09 05:48:13;;;;;;;36.78;20.27;;;8.50;1.00;;;;;;5018495;28;20056;-67
2023/04/09 05:50:39;;;;;;;39.15;22.27;;;8.70;1.00;;;;;;5001349;28;20041;-67
2023/04/09 05:53:05;;;;;;;39.63;23.67;;;8.60;1.00;;;;;;5016485;28;20042;-67
2023/04/09 05:55:31;;;;;;;42.15;22.90;;;8.90;1.00;;;;;;5000499;28;20056;-67
2023/04/09 05:57:57;;;;;;;37.28;22.25;;;8.50;1.00;;;;;;4987117;28;20111;-67
2023/04/09 06:00:24;;;;;;;38.03;22.95;;;;;;;;;;4984850;28;20484;-67
2023/04/09 06:02:49;;;;;;;42.22;23.65;;;9.00;1.00;;;;;;5018683;28;20041;-67
2023/04/09 06:05:15;;;;;;;38.63;23.52;;;8.70;1.00;;;;;;5014874;28;20084;-67
2023/04/09 06:07:41;;;;;;;36.17;22.05;;;8.10;1.00;;;;;;5015283;28;20276;-67
2023/04/09 06:10:07;;;;;;;39.65;22.90;;;;;;;;;;5007892;28;20037;-67
2023/04/09 06:12:35;;;;;;;36.35;22.70;;;8.80;1.00;;;;;;5012443;28;20422;-66
2023/04/09 06:15:02;;;;;;;35.95;22.73;;;8.80;99.90;;;;;;5027438;28;20041;-66
2023/04/09 06:17:28;;;;;;;33.10;20.52;;;8.50;99.90;;;;;;5025148;28;20033;-67
2023/04/09 06:19:54;;;;;;;36.45;20.40;;;8.50;99.90;;;;;;5029554;28;20033;-67
2023/04/09 06:22:19;;;;;;;34.72;20.45;;;9.00;99.90;;;;;;5024530;28;20467;-66
2023/04/09 06:24:45;;;;;;;37.85;22.50;;;8.80;99.90;;;;;;5006648;28;20041;-66
2023/04/09 06:27:11;;;;;;;32.30;20.58;;;8.70;99.90;;;;;;5015714;28;20456;-67
2023/04/09 06:29:36;;;;;;;34.88;21.77;;;9.00;99.90;;;;;;5005157;28;20112;-67
2023/04/09 06:32:02;;;;;;;37.40;20.90;;;8.70;99.90;;;;;;5013674;28;20045;-67
2023/04/09 06:34:28;;;;;;;35.78;20.35;;;8.90;99.90;;;;;;5019238;28;20052;-67
2023/04/09 06:36:54;;;;;;;34.85;21.13;;;8.40;99.90;;;;;;4984571;28;20048;-67
2023/04/09 06:39:20;;;;;;;29.50;18.73;;;8.90;99.90;;;;;;5005621;28;20041;-67
2023/04/09 06:41:46;;;;;;;29.83;18.02;;;8.70;99.90;;;;;;4998954;28;20412;-66
2023/04/09 06:44:12;;;;;;;37.88;20.20;;;8.80;99.90;;;;;;5007837;28;20130;-67
2023/04/09 06:46:37;;;;;;;31.35;19.25;;;8.90;99.90;;;;;;5012063;28;20472;-67
2023/04/09 06:49:04;;;;;;;29.38;18.65;;;9.30;99.90;;;;;;5015885;28;20069;-67
2023/04/09 06:51:30;;;;;;;35.10;20.23;;;;;;;;;;5007791;28;20046;-67
2023/04/09 06:53:56;;;;;;;28.52;18.23;;;9.00;99.90;;;;;;5009959;28;20099;-67
2023/04/09 06:56:22;;;;;;;28.35;18.83;;;8.90;99.90;;;;;;5019928;28;20511;-67
2023/04/09 06:58:47;;;;;;;37.83;20.67;;;8.90;99.90;;;;;;5022011;28;20128;-67
2023/04/09 07:01:13;;;;;;;32.70;19.58;;;9.10;99.90;;;;;;5020714;28;20106;-67
2023/04/09 07:03:39;;;;;;;32.33;18.80;;;8.90;99.00;;;;;;5009245;28;20061;-67
2023/04/09 07:06:05;;;;;;;31.38;19.00;;;8.90;80.50;;;;;;5017056;28;20042;-67
2023/04/09 07:08:30;;;;;;;31.42;18.55;;;9.30;40.80;;;;;;5018371;28;20049;-67
2023/04/09 07:10:56;;;;;;;28.15;18.02;;;8.70;47.50;;;;;;5020873;28;20658;-67
2023/04/09 07:13:22;;;;;;;30.27;17.52;;;8.80;29.70;;;;;;5000975;28;20053;-67
2023/04/09 07:15:47;;;;;;;30.90;19.15;;;8.90;14.10;;;;;;5014756;28;20117;-67
2023/04/09 07:18:13;;;;;;;29.60;18.85;;;9.10;1.00;;;;;;5013007;28;20061;-67
2023/04/09 07:20:39;;;;;;;31.77;19.52;;;9.20;1.00;;;;;;5017956;28;20406;-67
2023/04/09 07:23:05;;;;;;;30.55;19.05;;;8.90;1.00;;;;;;5019175;28;20116;-67
2023/04/09 07:25:31;;;;;;;34.72;19.65;;;9.10;1.00;;;;;;5017501;28;20069;-68
2023/04/09 07:27:57;;;;;;;32.17;19.33;;;9.30;1.00;;;;;;5025905;28;20041;-68
2023/04/09 07:30:22;;;;;;;32.90;19.45;;;9.20;1.00;;;;;;5009605;28;20044;-68
2023/04/09 07:32:48;;;;;;;31.63;19.90;;;9.50;1.00;;;;;;5015972;28;20038;-69
2023/04/09 07:35:14;;;;;;;34.78;21.50;;;9.30;1.00;;;;;;5014753;28;20040;-68
2023/04/09 07:37:40;;;;;;;31.00;19.80;;;9.10;1.00;;;;;;5021515;28;20045;-68
2023/04/09 07:40:07;;;;;;;34.13;21.30;;;9.10;1.00;;;;;;5011984;28;20069;-68
2023/04/09 07:42:32;;;;;;;32.22;19.73;;;9.50;1.00;;;;;;5016686;28;20038;-68
2023/04/09 07:44:58;;;;;;;33.28;21.40;;;9.70;1.00;;;;;;5022930;28;20043;-68
2023/04/09 07:47:24;;;;;;;32.00;20.30;;;9.60;1.00;;;;;;4993487;28;20133;-68
2023/04/09 07:49:49;;;;;;;33.20;21.83;;;9.20;1.00;;;;;;5021301;28;20356;-68
2023/04/09 07:52:15;;;;;;;31.88;19.92;;;9.30;1.00;;;;;;5012369;28;20037;-68
2023/04/09 07:54:41;;;;;;;36.00;20.70;;;9.20;1.00;;;;;;5013982;28;20038;-68
2023/04/09 07:57:06;;;;;;;34.58;20.45;;;9.30;1.00;;;;;;5010455;28;20076;-68
2023/04/09 07:59:33;;;;;;;35.17;21.77;;;8.80;1.00;;;;;;5001405;28;20030;-68
2023/04/09 08:01:59;;;;;;;35.97;21.70;;;9.30;1.00;;;;;;5023985;28;20107;-68
2023/04/09 08:04:25;;;;;;;36.45;22.52;;;9.20;1.00;;;;;;5024665;28;20021;-68
2023/04/09 08:06:52;;;;;;;32.63;21.35;;;9.10;1.00;;;;;;5023231;28;20077;-68
2023/04/09 08:09:18;;;;;;;34.67;20.88;;;;;;;;;;5002853;28;20046;-68
2023/04/09 08:11:44;;;;;;;35.05;21.73;;;9.70;1.00;;;;;;5016888;28;20053;-68
2023/04/09 08:14:15;;;;;;;39.35;23.70;;;9.90;1.00;;;;;;4999494;28;20091;-68
2023/04/09 08:16:45;;;;;;;35.90;21.98;;;9.20;1.00;;;;;;5018408;28;20510;-68
2023/04/09 08:19:13;;;;;;;34.42;21.38;;;9.80;1.00;;;;;;5011131;28;20091;-68
2023/04/09 08:21:42;;;;;;;32.22;20.27;;;9.30;1.00;;;;;;5019337;28;20049;-69
2023/04/09 08:24:11;;;;;;;35.80;22.15;;;9.40;1.00;;;;;;4980811;28;20089;-69
2023/04/09 08:26:38;;;;;;;35.75;21.98;;;9.30;1.00;;;;;;5018244;28;20455;-69
2023/04/09 08:29:04;;;;;;;37.80;22.33;;;9.70;1.00;;;;;;5004756;28;20637;-69
2023/04/09 08:31:30;;;;;;;37.55;22.92;;;;;;;;;;5008145;28;20053;-69
2023/04/09 08:33:56;;;;;;;37.80;22.40;;;9.60;1.00;;;;;;5004653;28;20041;-69
2023/04/09 08:36:22;;;;;;;34.53;20.88;;;9.80;1.00;;;;;;5023258;28;20037;-69
2023/04/09 08:38:48;;;;;;;37.70;22.08;;;9.40;1.00;;;;;;5002682;28;20056;-69
2023/04/09 08:41:17;;;;;;;38.75;21.95;;;9.50;1.00;;;;;;5001062;28;20443;-69
2023/04/09 08:43:46;;;;;;;32.78;21.52;;;9.50;1.00;;;;;;5013912;28;20045;-69
2023/04/09 08:46:14;;;;;;;34.15;20.95;;;9.30;1.00;;;;;;5022300;28;20049;-69
2023/04/09 08:48:41;;;;;;;34.55;21.25;;;;;;;;;;5001857;28;20037;-69
2023/04/09 08:51:07;;;;;;;33.60;20.80;;;9.60;1.00;;;;;;5008926;28;20092;-69
2023/04/09 08:53:35;;;;;;;33.75;20.45;;;9.80;1.00;;;;;;5021986;28;20034;-69
2023/04/09 08:56:00;;;;;;;37.25;21.35;;;9.90;1.00;;;;;;5013687;28;20415;-69
2023/04/09 08:58:26;;;;;;;35.45;22.13;;;9.50;99.90;;;;;;4997996;28;20045;-69
2023/04/09 09:00:52;;;;;;;32.88;20.70;;;10.00;99.90;;;;;;5013089;28;20052;-69
2023/04/09 09:03:17;;;;;;;32.17;20.65;;;9.90;99.90;;;;;;5018357;28;20030;-69
2023/04/09 09:05:45;;;;;;;37.60;23.17;;;9.90;99.90;;;;;;4999522;28;20434;-69
2023/04/09 09:08:13;;;;;;;36.30;21.50;;;9.60;1.00;;;;;;5018785;28;20884;-70
2023/04/09 09:10:45;;;;;;;36.25;22.42;;;10.00;99.90;;;;;;5017619;28;20034;-70
2023/04/09 09:13:24;;;;;;;37.63;22.98;;;;;;;;;;5000669;28;20037;-69
2023/04/09 09:16:10;;;;;;;35.88;21.75;;;9.80;99.90;;;;;;4999244;28;20046;-70
2023/04/09 09:18:43;;;;;;;32.53;20.48;;;10.20;99.90;;;;;;4989548;28;20052;-70
2023/04/09 09:21:10;;;;;;;34.80;22.38;;;;;;;;;;4999633;28;20044;-70
2023/04/09 09:23:36;;;;;;;33.33;20.55;;;10.40;99.90;;;;;;5001052;28;20044;-68
2023/04/09 09:26:15;;;;;;;36.40;21.42;;;10.00;99.90;;;;;;5004024;28;20513;-67
2023/04/09 09:28:41;;;;;;;34.22;20.80;;;;;;;;;;5024040;28;20029;-67
2023/04/09 09:31:11;;;;;;;36.10;21.08;;;10.10;99.90;;;;;;5019640;28;20407;-67
2023/04/09 09:33:38;;;;;;;33.25;20.25;;;10.30;99.90;;;;;;5010681;28;20033;-67
2023/04/09 09:36:04;;;;;;;35.42;19.85;;;10.30;99.90;;;;;;5011199;28;20043;-68
2023/04/09 09:38:30;;;;;;;32.03;19.83;;;10.50;99.90;;;;;;5013769;28;20038;-68
2023/04/09 09:40:55;;;;;;;30.98;19.98;;;10.30;99.90;;;;;;5017767;28;20099;-67
2023/04/09 09:43:21;;;;;;;31.65;20.05;;;10.60;99.90;;;;;;5007314;28;20034;-68
2023/04/09 09:45:47;;;;;;;32.72;20.35;;;10.70;99.90;;;;;;5006995;28;20046;-68
2023/04/09 09:48:14;;;;;;;35.75;20.58;;;10.20;99.90;;;;;;5002939;28;20072;-68
2023/04/09 09:50:40;;;;;;;30.80;20.33;;;10.60;99.90;;;;;;5021451;28;20547;-68
2023/04/09 09:53:09;;;;;;;35.00;21.55;;;10.80;99.90;;;;;;5020581;28;20037;-68
2023/04/09 09:55:39;;;;;;;32.75;20.08;;;10.50;99.90;;;;;;5024545;28;20096;-68
2023/04/09 09:58:13;;;;;;;34.03;20.60;;;11.00;99.90;;;;;;5022585;28;20317;-68
2023/04/09 10:00:39;;;;;;;32.05;19.80;;;10.20;98.80;;;;;;5019745;28;20030;-68
2023/04/09 10:03:15;;;;;;;33.38;19.83;;;;;;;;;;5015901;28;20060;-68
2023/04/09 10:05:41;;;;;;;32.58;20.27;;;10.90;18.40;;;;;;5011141;28;20079;-68
2023/04/09 10:08:08;;;;;;;30.38;20.05;;;11.00;27.70;;;;;;4988670;28;20073;-68
2023/04/09 10:10:34;;;;;;;34.75;20.40;;;;;;;;;;5021049;28;20537;-68
2023/04/09 10:13:00;;;;;;;31.77;19.80;;;10.40;1.00;;;;;;5015510;28;20046;-68
2023/04/09 10:15:29;;;;;;;31.83;19.17;;;10.70;1.00;;;;;;5021649;28;20148;-68
2023/04/09 10:17:56;;;;;;;29.23;18.33;;;11.10;1.00;;;;;;5016433;28;20045;-68
2023/04/09 10:20:47;;;;;;;31.42;19.40;;;10.90;1.00;;;;;;5022900;28;20041;-68
2023/04/09 10:23:29;;;;;;;28.75;18.17;;;11.40;1.00;;;;;;5016385;28;20044;-67
2023/04/09 10:25:55;;;;;;;27.17;17.92;;;10.80;1.00;;;;;;5022948;28;20073;-68
2023/04/09 10:28:22;;;;;;;29.45;19.52;;;;;;;;;;4999233;28;20073;-68
2023/04/09 10:30:48;;;;;;;27.58;18.58;;;11.30;1.00;;;;;;5010819;28;20104;-68
2023/04/09 10:33:15;;;;;;;26.50;18.38;;;11.20;1.00;;;;;;5005998;28;20037;-68
2023/04/09 10:35:45;;;;;;;31.13;20.08;;;11.20;1.00;;;;;;5029143;28;20124;-68
2023/04/09 10:38:12;;;;;;;30.08;19.80;;;11.50;1.00;;;;;;5029166;28;20041;-67
2023/04/09 10:40:57;;;;;;;26.70;18.50;;;11.10;1.00;;;;;;5011279;28;20079;-67
2023/04/09 10:43:23;;;;;;;30.15;19.85;;;11.60;99.90;;;;;;5003534;28;20069;-67
2023/04/09 10:45:53;;;;;;;28.38;18.80;;;11.70;1.00;;;;;;5011463;28;20084;-67
2023/04/09 10:48:20;;;;;;;26.60;17.20;;;11.50;99.90;;;;;;5029475;28;20069;-67
2023/04/09 10:50:51;;;;;;;27.00;17.50;;;11.50;99.90;;;;;;5002998;28;20045;-67
2023/04/09 10:53:26;;;;;;;32.42;18.70;;;11.60;99.90;;;;;;5005096;28;20042;-67
2023/04/09 10:55:54;;;;;;;28.33;19.77;;;12.00;99.90;;;;;;5000023;28;20045;-67
2023/04/09 10:58:19;;;;;;;28.65;18.95;;;11.90;99.90;;;;;;5009823;28;20038;-67
2023/04/09 11:00:47;;;;;;;28.05;17.95;;;12.00;99.90;;;;;;5028506;28;20456;-67
2023/04/09 11:03:20;;;;;;;30.75;19.90;;;12.30;99.90;;;;;;5020157;28;20061;-67
2023/04/09 11:05:59;;;;;;;27.98;18.95;;;12.10;99.90;;;;;;5027720;28;20087;-67
2023/04/09 11:08:35;;;;;;;31.00;20.60;;;12.30;99.90;;;;;;5029199;28;20048;-67
2023/04/09 11:11:02;;;;;;;28.40;19.75;;;13.30;99.90;;;;;;5024482;28;20034;-67
2023/04/09 11:13:29;;;;;;;28.25;19.05;;;12.20;99.90;;;;;;5016417;28;20522;-68
2023/04/09 11:15:56;;;;;;;30.58;19.83;;;12.60;99.90;;;;;;5007031;28;20045;-67
2023/04/09 11:18:26;;;;;;;29.15;19.42;;;12.60;99.90;;;;;;5002538;28;20480;-67
2023/04/09 11:20:56;;;;;;;27.40;18.67;;;13.20;99.90;;;;;;5021348;28;20060;-68
2023/04/09 11:23:23;;;;;;;27.10;18.92;;;13.10;99.90;;;;;;4998341;28;20045;-67
2023/04/09 11:25:50;;;;;;;25.42;18.33;;;13.30;99.90;;;;;;5015951;28;20176;-67
2023/04/09 11:28:16;;;;;;;27.60;19.02;;;13.90;99.90;;;;;;5009175;28;20049;-67
2023/04/09 11:30:42;;;;;;;29.48;19.58;;;13.60;99.90;;;;;;5016951;28;20038;-68
2023/04/09 11:33:08;;;;;;;26.40;17.52;;;;;;;;;;5018112;28;20483;-68
2023/04/09 11:35:37;;;;;;;24.92;18.48;;;14.20;99.90;;;;;;5032731;28;20097;-68
2023/04/09 11:38:07;;;;;;;27.65;18.30;;;14.50;99.90;;;;;;5020431;28;20103;-67
2023/04/09 11:40:33;;;;;;;24.48;17.63;;;14.70;61.90;;;;;;5005145;28;20044;-68
2023/04/09 11:42:59;;;;;;;25.83;18.25;;;14.80;48.70;;;;;;5025256;28;20049;-68
2023/04/09 11:45:27;;;;;;;23.33;17.67;;;14.70;46.20;;;;;;5032893;28;20132;-68
2023/04/09 11:47:53;;;;;;;24.75;17.20;;;;;;;;;;5003897;28;20034;-68
2023/04/09 11:50:20;;;;;;;23.08;17.33;;;14.90;1.00;;;;;;4998516;28;20499;-68
2023/04/09 11:52:46;;;;;;;24.13;16.77;;;14.10;1.00;;;;;;5022884;28;20040;-68
2023/04/09 11:55:22;;;;;;;28.90;19.35;;;;;;;;;;5032412;28;20042;-69
2023/04/09 11:57:50;;;;;;;24.65;17.58;;;14.70;1.00;;;;;;5029063;28;20076;-68
2023/04/09 12:00:17;;;;;;;21.33;16.13;;;14.40;1.00;;;;;;5027081;28;20037;-68
2023/04/09 12:02:49;;;;;;;24.98;17.13;;;14.60;1.00;;;;;;5030547;28;20091;-68
2023/04/09 12:05:27;;;;;;;23.05;16.48;;;14.60;1.00;;;;;;5021302;28;20088;-67
2023/04/09 12:07:58;;;;;;;23.60;16.70;;;15.40;1.00;;;;;;5027811;28;20037;-68
2023/04/09 12:10:29;;;;;;;24.27;17.10;;;14.60;1.00;;;;;;5017303;28;20124;-67
2023/04/09 12:13:01;;;;;;;22.42;16.30;;;15.20;1.00;;;;;;5019657;28;20049;-68
2023/04/09 12:15:34;;;;;;;26.33;17.23;;;15.00;1.00;;;;;;5032441;28;20087;-68
2023/04/09 12:18:00;;;;;;;26.05;18.17;;;16.00;1.00;;;;;;5031510;28;20041;-67
2023/04/09 12:20:29;;;;;;;25.33;17.10;;;16.90;1.00;;;;;;5029640;28;20164;-68
2023/04/09 12:22:55;;;;;;;25.30;16.52;;;16.80;1.00;;;;;;5031061;28;20040;-68
2023/04/09 12:25:21;;;;;;;27.25;17.75;;;17.50;1.00;;;;;;5003443;28;20034;-68
2023/04/09 12:27:46;;;;;;;24.23;16.45;;;17.60;1.00;;;;;;5013116;28;20092;-68
2023/04/09 12:30:12;;;;;;;22.13;16.90;;;17.50;1.00;;;;;;5023316;28;20164;-68
2023/04/09 12:32:38;;;;;;;25.38;18.10;;;17.60;1.00;;;;;;5026238;28;20095;-67
2023/04/09 12:35:04;;;;;;;21.50;16.17;;;18.40;1.00;;;;;;5023599;28;20479;-68
2023/04/09 12:37:30;;;;;;;22.60;16.23;;;21.00;99.90;;;;;;5026012;28;20045;-68
2023/04/09 12:39:55;;;;;;;19.90;15.98;;;22.90;99.90;;;;;;5030149;28;20487;-68
2023/04/09 12:42:21;;;;;;;23.38;16.52;;;25.10;99.90;;;;;;5007473;28;20062;-70
2023/04/09 12:44:47;;;;;;;22.08;17.33;;;25.90;99.90;;;;;;5010524;28;20073;-70
2023/04/09 12:47:12;;;;;;;22.20;16.50;;;26.60;99.90;;;;;;5009004;28;20041;-69